sensor_id;sensor_type;location;lat;lon;timestamp;temperature;humidity
25871;DHT22;13689;48.590;7.752;2022-10-18T00:01:05;19.60;76.30
25871;DHT22;13689;48.590;7.752;2022-10-18T00:03:31;19.60;76.20
25871;DHT22;13689;48.590;7.752;2022-10-18T00:05:57;19.60;76.30
25871;DHT22;13689;48.590;7.752;2022-10-18T00:08:23;19.60;76.20
25871;DHT22;13689;48.590;7.752;2022-10-18T00:10:49;19.60;76.20
25871;DHT22;13689;48.590;7.752;2022-10-18T00:13:16;19.50;76.30
25871;DHT22;13689;48.590;7.752;2022-10-18T00:15:49;19.50;76.30
25871;DHT22;13689;48.590;7.752;2022-10-18T00:18:16;19.50;76.40
25871;DHT22;13689;48.590;7.752;2022-10-18T00:20:41;19.50;76.50
25871;DHT22;13689;48.590;7.752;2022-10-18T00:23:07;19.50;76.50
25871;DHT22;13689;48.590;7.752;2022-10-18T00:25:32;19.50;76.50
25871;DHT22;13689;48.590;7.752;2022-10-18T00:27:58;19.40;76.60
25871;DHT22;13689;48.590;7.752;2022-10-18T00:30:24;19.40;76.70
25871;DHT22;13689;48.590;7.752;2022-10-18T00:32:49;19.40;76.70
25871;DHT22;13689;48.590;7.752;2022-10-18T00:35:15;19.40;76.80
25871;DHT22;13689;48.590;7.752;2022-10-18T00:37:41;19.30;76.80
25871;DHT22;13689;48.590;7.752;2022-10-18T00:40:07;19.30;77.00
25871;DHT22;13689;48.590;7.752;2022-10-18T00:42:34;19.30;77.10
25871;DHT22;13689;48.590;7.752;2022-10-18T00:45:12;19.30;77.10
25871;DHT22;13689;48.590;7.752;2022-10-18T00:47:39;19.30;77.10
25871;DHT22;13689;48.590;7.752;2022-10-18T00:50:07;19.40;77.10
25871;DHT22;13689;48.590;7.752;2022-10-18T00:52:54;19.40;77.20
25871;DHT22;13689;48.590;7.752;2022-10-18T00:55:23;19.30;77.10
25871;DHT22;13689;48.590;7.752;2022-10-18T00:57:49;19.30;77.20
25871;DHT22;13689;48.590;7.752;2022-10-18T01:00:15;19.30;77.20
25871;DHT22;13689;48.590;7.752;2022-10-18T01:02:42;19.30;77.10
25871;DHT22;13689;48.590;7.752;2022-10-18T01:05:11;19.30;77.10
25871;DHT22;13689;48.590;7.752;2022-10-18T01:10:41;19.30;77.30
25871;DHT22;13689;48.590;7.752;2022-10-18T01:13:32;19.30;77.30
25871;DHT22;13689;48.590;7.752;2022-10-18T01:19:02;19.30;78.10
25871;DHT22;13689;48.590;7.752;2022-10-18T01:24:21;19.20;77.30
25871;DHT22;13689;48.590;7.752;2022-10-18T01:33:25;19.20;77.40
25871;DHT22;13689;48.590;7.752;2022-10-18T01:35:59;19.10;77.50
25871;DHT22;13689;48.590;7.752;2022-10-18T01:38:29;19.10;77.70
25871;DHT22;13689;48.590;7.752;2022-10-18T01:40:56;19.10;77.90
25871;DHT22;13689;48.590;7.752;2022-10-18T01:43:23;19.10;78.00
25871;DHT22;13689;48.590;7.752;2022-10-18T01:45:51;19.00;78.00
25871;DHT22;13689;48.590;7.752;2022-10-18T01:48:18;19.00;78.10
25871;DHT22;13689;48.590;7.752;2022-10-18T01:50:47;18.90;78.10
25871;DHT22;13689;48.590;7.752;2022-10-18T01:53:27;18.90;78.40
25871;DHT22;13689;48.590;7.752;2022-10-18T01:58:41;18.70;78.60
25871;DHT22;13689;48.590;7.752;2022-10-18T02:01:24;18.60;79.00
25871;DHT22;13689;48.590;7.752;2022-10-18T02:03:55;18.60;79.20
25871;DHT22;13689;48.590;7.752;2022-10-18T02:06:33;18.60;79.30
25871;DHT22;13689;48.590;7.752;2022-10-18T02:09:13;18.60;79.20
25871;DHT22;13689;48.590;7.752;2022-10-18T02:11:42;18.70;79.20
25871;DHT22;13689;48.590;7.752;2022-10-18T02:14:12;18.60;79.10
25871;DHT22;13689;48.590;7.752;2022-10-18T02:17:14;18.60;79.20
25871;DHT22;13689;48.590;7.752;2022-10-18T02:19:48;18.60;79.30
25871;DHT22;13689;48.590;7.752;2022-10-18T02:22:16;18.60;79.30
25871;DHT22;13689;48.590;7.752;2022-10-18T02:24:50;18.50;79.30
25871;DHT22;13689;48.590;7.752;2022-10-18T02:27:17;18.50;79.50
25871;DHT22;13689;48.590;7.752;2022-10-18T02:29:43;18.50;79.70
25871;DHT22;13689;48.590;7.752;2022-10-18T02:32:37;18.40;79.50
25871;DHT22;13689;48.590;7.752;2022-10-18T02:35:30;18.40;79.90
25871;DHT22;13689;48.590;7.752;2022-10-18T02:37:57;18.40;80.00
25871;DHT22;13689;48.590;7.752;2022-10-18T02:40:23;18.40;79.90
25871;DHT22;13689;48.590;7.752;2022-10-18T02:42:53;18.40;80.00
25871;DHT22;13689;48.590;7.752;2022-10-18T02:45:20;18.40;80.10
25871;DHT22;13689;48.590;7.752;2022-10-18T02:47:46;18.40;80.00
25871;DHT22;13689;48.590;7.752;2022-10-18T02:50:12;18.40;80.10
25871;DHT22;13689;48.590;7.752;2022-10-18T02:52:38;18.40;80.10
25871;DHT22;13689;48.590;7.752;2022-10-18T02:55:05;18.40;80.10
25871;DHT22;13689;48.590;7.752;2022-10-18T02:57:31;18.40;80.10
25871;DHT22;13689;48.590;7.752;2022-10-18T02:59:57;18.40;80.10
25871;DHT22;13689;48.590;7.752;2022-10-18T03:02:22;18.40;80.00
25871;DHT22;13689;48.590;7.752;2022-10-18T03:04:48;18.50;80.10
25871;DHT22;13689;48.590;7.752;2022-10-18T03:07:13;18.40;80.00
25871;DHT22;13689;48.590;7.752;2022-10-18T03:09:39;18.40;80.00
25871;DHT22;13689;48.590;7.752;2022-10-18T03:12:05;18.40;80.10
25871;DHT22;13689;48.590;7.752;2022-10-18T03:14:30;18.40;80.20
25871;DHT22;13689;48.590;7.752;2022-10-18T03:16:56;18.40;80.30
25871;DHT22;13689;48.590;7.752;2022-10-18T03:19:22;18.40;80.30
25871;DHT22;13689;48.590;7.752;2022-10-18T03:21:47;18.40;80.30
25871;DHT22;13689;48.590;7.752;2022-10-18T03:24:13;18.40;80.30
25871;DHT22;13689;48.590;7.752;2022-10-18T03:26:38;18.30;80.40
25871;DHT22;13689;48.590;7.752;2022-10-18T03:29:04;18.30;80.50
25871;DHT22;13689;48.590;7.752;2022-10-18T03:31:30;18.30;80.50
25871;DHT22;13689;48.590;7.752;2022-10-18T03:33:55;18.30;81.20
25871;DHT22;13689;48.590;7.752;2022-10-18T03:36:21;18.30;80.40
25871;DHT22;13689;48.590;7.752;2022-10-18T03:38:46;18.30;80.50
25871;DHT22;13689;48.590;7.752;2022-10-18T03:41:12;18.30;80.50
25871;DHT22;13689;48.590;7.752;2022-10-18T03:43:38;18.30;80.40
25871;DHT22;13689;48.590;7.752;2022-10-18T03:46:03;18.30;80.40
25871;DHT22;13689;48.590;7.752;2022-10-18T03:48:29;18.30;80.40
25871;DHT22;13689;48.590;7.752;2022-10-18T03:50:55;18.30;80.40
25871;DHT22;13689;48.590;7.752;2022-10-18T03:53:20;18.30;80.50
25871;DHT22;13689;48.590;7.752;2022-10-18T03:55:50;18.30;80.60
25871;DHT22;13689;48.590;7.752;2022-10-18T03:58:16;18.30;80.60
25871;DHT22;13689;48.590;7.752;2022-10-18T04:00:41;18.30;80.70
25871;DHT22;13689;48.590;7.752;2022-10-18T04:03:07;18.20;80.70
25871;DHT22;13689;48.590;7.752;2022-10-18T04:05:33;18.20;81.00
25871;DHT22;13689;48.590;7.752;2022-10-18T04:07:59;18.20;81.10
25871;DHT22;13689;48.590;7.752;2022-10-18T04:10:25;18.10;81.20
25871;DHT22;13689;48.590;7.752;2022-10-18T04:12:51;18.10;81.10
25871;DHT22;13689;48.590;7.752;2022-10-18T04:15:16;18.00;81.10
25871;DHT22;13689;48.590;7.752;2022-10-18T04:17:42;18.00;81.30
25871;DHT22;13689;48.590;7.752;2022-10-18T04:20:08;18.00;81.30
25871;DHT22;13689;48.590;7.752;2022-10-18T04:22:34;18.00;81.50
25871;DHT22;13689;48.590;7.752;2022-10-18T04:24:59;18.00;81.60
25871;DHT22;13689;48.590;7.752;2022-10-18T04:27:25;18.00;81.60
25871;DHT22;13689;48.590;7.752;2022-10-18T04:29:51;18.00;81.70
25871;DHT22;13689;48.590;7.752;2022-10-18T04:32:16;18.00;81.80
25871;DHT22;13689;48.590;7.752;2022-10-18T04:34:42;18.00;81.90
25871;DHT22;13689;48.590;7.752;2022-10-18T04:37:08;18.10;81.80
25871;DHT22;13689;48.590;7.752;2022-10-18T04:39:33;18.10;81.70
25871;DHT22;13689;48.590;7.752;2022-10-18T04:41:59;18.10;81.70
25871;DHT22;13689;48.590;7.752;2022-10-18T04:44:25;18.10;81.70
25871;DHT22;13689;48.590;7.752;2022-10-18T04:46:50;18.10;81.60
25871;DHT22;13689;48.590;7.752;2022-10-18T04:49:16;18.10;81.70
25871;DHT22;13689;48.590;7.752;2022-10-18T04:51:42;18.10;81.50
25871;DHT22;13689;48.590;7.752;2022-10-18T04:54:07;18.20;81.60
25871;DHT22;13689;48.590;7.752;2022-10-18T04:56:33;18.10;81.40
25871;DHT22;13689;48.590;7.752;2022-10-18T04:58:58;18.20;81.40
25871;DHT22;13689;48.590;7.752;2022-10-18T05:01:25;18.20;81.40
25871;DHT22;13689;48.590;7.752;2022-10-18T05:03:52;18.20;81.30
25871;DHT22;13689;48.590;7.752;2022-10-18T05:06:19;18.30;81.30
25871;DHT22;13689;48.590;7.752;2022-10-18T05:08:44;18.30;81.20
25871;DHT22;13689;48.590;7.752;2022-10-18T05:11:10;18.30;81.00
25871;DHT22;13689;48.590;7.752;2022-10-18T05:13:36;18.30;81.00
25871;DHT22;13689;48.590;7.752;2022-10-18T05:16:03;18.30;81.00
25871;DHT22;13689;48.590;7.752;2022-10-18T05:18:29;18.30;80.90
25871;DHT22;13689;48.590;7.752;2022-10-18T05:20:55;18.30;80.80
25871;DHT22;13689;48.590;7.752;2022-10-18T05:23:21;18.30;80.80
25871;DHT22;13689;48.590;7.752;2022-10-18T05:25:47;18.30;80.80
25871;DHT22;13689;48.590;7.752;2022-10-18T05:28:13;18.30;80.80
25871;DHT22;13689;48.590;7.752;2022-10-18T05:30:39;18.30;80.80
25871;DHT22;13689;48.590;7.752;2022-10-18T05:33:05;18.30;80.80
25871;DHT22;13689;48.590;7.752;2022-10-18T05:35:31;18.30;80.80
25871;DHT22;13689;48.590;7.752;2022-10-18T05:37:57;18.30;80.80
25871;DHT22;13689;48.590;7.752;2022-10-18T05:40:23;18.30;80.80
25871;DHT22;13689;48.590;7.752;2022-10-18T05:42:51;18.30;81.00
25871;DHT22;13689;48.590;7.752;2022-10-18T05:45:17;18.30;81.10
25871;DHT22;13689;48.590;7.752;2022-10-18T05:47:43;18.30;80.90
25871;DHT22;13689;48.590;7.752;2022-10-18T05:50:09;18.40;81.00
25871;DHT22;13689;48.590;7.752;2022-10-18T05:52:34;18.40;80.90
25871;DHT22;13689;48.590;7.752;2022-10-18T05:55:00;18.40;80.90
25871;DHT22;13689;48.590;7.752;2022-10-18T05:57:26;18.40;81.30
25871;DHT22;13689;48.590;7.752;2022-10-18T05:59:52;18.40;80.70
25871;DHT22;13689;48.590;7.752;2022-10-18T06:02:17;18.40;80.70
25871;DHT22;13689;48.590;7.752;2022-10-18T06:04:43;18.40;80.80
25871;DHT22;13689;48.590;7.752;2022-10-18T06:07:09;18.40;80.80
25871;DHT22;13689;48.590;7.752;2022-10-18T06:09:36;18.40;80.80
25871;DHT22;13689;48.590;7.752;2022-10-18T06:12:03;18.40;80.80
25871;DHT22;13689;48.590;7.752;2022-10-18T06:14:29;18.40;80.70
25871;DHT22;13689;48.590;7.752;2022-10-18T06:16:55;18.40;80.70
25871;DHT22;13689;48.590;7.752;2022-10-18T06:19:22;18.50;80.70
25871;DHT22;13689;48.590;7.752;2022-10-18T06:21:47;18.50;80.70
25871;DHT22;13689;48.590;7.752;2022-10-18T06:24:13;18.50;80.60
25871;DHT22;13689;48.590;7.752;2022-10-18T06:26:39;18.50;80.50
25871;DHT22;13689;48.590;7.752;2022-10-18T06:29:04;18.50;80.50
25871;DHT22;13689;48.590;7.752;2022-10-18T06:31:30;18.60;80.40
25871;DHT22;13689;48.590;7.752;2022-10-18T06:33:56;18.60;80.40
25871;DHT22;13689;48.590;7.752;2022-10-18T06:36:25;18.60;80.30
25871;DHT22;13689;48.590;7.752;2022-10-18T06:38:51;18.60;80.30
25871;DHT22;13689;48.590;7.752;2022-10-18T06:41:17;18.60;80.40
25871;DHT22;13689;48.590;7.752;2022-10-18T06:43:53;18.50;80.30
25871;DHT22;13689;48.590;7.752;2022-10-18T06:46:22;18.50;80.30
25871;DHT22;13689;48.590;7.752;2022-10-18T06:48:47;18.50;80.40
25871;DHT22;13689;48.590;7.752;2022-10-18T06:51:13;18.50;80.40
25871;DHT22;13689;48.590;7.752;2022-10-18T06:53:40;18.50;80.40
25871;DHT22;13689;48.590;7.752;2022-10-18T06:56:11;18.60;80.60
25871;DHT22;13689;48.590;7.752;2022-10-18T06:58:37;18.50;80.40
25871;DHT22;13689;48.590;7.752;2022-10-18T07:01:10;18.50;80.50
25871;DHT22;13689;48.590;7.752;2022-10-18T07:03:37;18.50;80.50
25871;DHT22;13689;48.590;7.752;2022-10-18T07:06:05;18.50;80.50
25871;DHT22;13689;48.590;7.752;2022-10-18T07:08:31;18.50;80.50
25871;DHT22;13689;48.590;7.752;2022-10-18T07:10:57;18.50;80.50
25871;DHT22;13689;48.590;7.752;2022-10-18T07:13:23;18.50;80.50
25871;DHT22;13689;48.590;7.752;2022-10-18T07:15:58;18.50;80.60
25871;DHT22;13689;48.590;7.752;2022-10-18T07:18:24;18.60;80.60
25871;DHT22;13689;48.590;7.752;2022-10-18T07:20:49;18.60;80.60
25871;DHT22;13689;48.590;7.752;2022-10-18T07:23:15;18.60;80.60
25871;DHT22;13689;48.590;7.752;2022-10-18T07:25:40;18.60;80.60
25871;DHT22;13689;48.590;7.752;2022-10-18T07:28:06;18.60;80.50
25871;DHT22;13689;48.590;7.752;2022-10-18T07:30:32;18.60;80.40
25871;DHT22;13689;48.590;7.752;2022-10-18T07:32:58;18.60;80.40
25871;DHT22;13689;48.590;7.752;2022-10-18T07:35:24;18.60;80.30
25871;DHT22;13689;48.590;7.752;2022-10-18T07:37:49;18.60;80.30
25871;DHT22;13689;48.590;7.752;2022-10-18T07:40:15;18.70;80.40
25871;DHT22;13689;48.590;7.752;2022-10-18T07:42:41;18.80;80.40
25871;DHT22;13689;48.590;7.752;2022-10-18T07:45:06;18.90;80.10
25871;DHT22;13689;48.590;7.752;2022-10-18T07:47:32;19.10;79.70
25871;DHT22;13689;48.590;7.752;2022-10-18T07:49:58;19.10;79.50
25871;DHT22;13689;48.590;7.752;2022-10-18T07:52:24;19.20;79.40
25871;DHT22;13689;48.590;7.752;2022-10-18T07:54:49;19.30;79.00
25871;DHT22;13689;48.590;7.752;2022-10-18T07:57:15;19.40;78.70
25871;DHT22;13689;48.590;7.752;2022-10-18T07:59:40;19.50;78.50
25871;DHT22;13689;48.590;7.752;2022-10-18T08:02:09;19.60;78.20
25871;DHT22;13689;48.590;7.752;2022-10-18T08:04:34;19.60;77.80
25871;DHT22;13689;48.590;7.752;2022-10-18T08:07:01;19.50;77.70
25871;DHT22;13689;48.590;7.752;2022-10-18T08:09:27;19.50;77.60
25871;DHT22;13689;48.590;7.752;2022-10-18T08:11:52;19.40;77.60
25871;DHT22;13689;48.590;7.752;2022-10-18T08:14:18;19.50;77.60
25871;DHT22;13689;48.590;7.752;2022-10-18T08:16:45;19.40;77.40
25871;DHT22;13689;48.590;7.752;2022-10-18T08:19:10;19.50;77.30
25871;DHT22;13689;48.590;7.752;2022-10-18T08:21:36;19.70;76.90
25871;DHT22;13689;48.590;7.752;2022-10-18T08:24:02;19.90;76.50
25871;DHT22;13689;48.590;7.752;2022-10-18T08:26:27;19.90;76.20
25871;DHT22;13689;48.590;7.752;2022-10-18T08:28:53;19.90;76.20
25871;DHT22;13689;48.590;7.752;2022-10-18T08:31:19;20.00;76.20
25871;DHT22;13689;48.590;7.752;2022-10-18T08:33:47;20.30;75.90
25871;DHT22;13689;48.590;7.752;2022-10-18T08:36:15;21.00;75.40
25871;DHT22;13689;48.590;7.752;2022-10-18T08:38:42;21.70;74.30
25871;DHT22;13689;48.590;7.752;2022-10-18T08:44:23;23.90;70.00
25871;DHT22;13689;48.590;7.752;2022-10-18T08:46:52;23.70;68.40
25871;DHT22;13689;48.590;7.752;2022-10-18T08:49:27;23.20;68.70
25871;DHT22;13689;48.590;7.752;2022-10-18T08:51:55;23.50;68.40
25871;DHT22;13689;48.590;7.752;2022-10-18T08:54:35;25.20;65.90
25871;DHT22;13689;48.590;7.752;2022-10-18T08:57:04;26.80;62.50
25871;DHT22;13689;48.590;7.752;2022-10-18T08:59:39;28.00;59.70
25871;DHT22;13689;48.590;7.752;2022-10-18T09:05:38;28.10;56.50
25871;DHT22;13689;48.590;7.752;2022-10-18T09:11:04;25.50;58.60
25871;DHT22;13689;48.590;7.752;2022-10-18T09:16:02;24.10;60.60
25871;DHT22;13689;48.590;7.752;2022-10-18T09:19:09;23.80;61.00
25871;DHT22;13689;48.590;7.752;2022-10-18T09:21:51;23.50;61.40
25871;DHT22;13689;48.590;7.752;2022-10-18T09:24:25;23.30;61.60
25871;DHT22;13689;48.590;7.752;2022-10-18T09:27:17;24.60;61.00
25871;DHT22;13689;48.590;7.752;2022-10-18T09:29:57;26.00;59.30
25871;DHT22;13689;48.590;7.752;2022-10-18T09:32:50;27.30;57.80
25871;DHT22;13689;48.590;7.752;2022-10-18T09:35:23;28.40;55.90
25871;DHT22;13689;48.590;7.752;2022-10-18T09:37:53;29.00;55.20
25871;DHT22;13689;48.590;7.752;2022-10-18T09:40:22;29.40;53.90
25871;DHT22;13689;48.590;7.752;2022-10-18T09:45:42;30.10;51.40
25871;DHT22;13689;48.590;7.752;2022-10-18T09:53:29;30.60;49.20
25871;DHT22;13689;48.590;7.752;2022-10-18T09:56:01;30.20;49.60
25871;DHT22;13689;48.590;7.752;2022-10-18T09:58:53;29.70;50.50
25871;DHT22;13689;48.590;7.752;2022-10-18T10:01:24;30.00;49.30
25871;DHT22;13689;48.590;7.752;2022-10-18T10:03:51;30.80;48.10
25871;DHT22;13689;48.590;7.752;2022-10-18T10:06:23;31.40;47.40
25871;DHT22;13689;48.590;7.752;2022-10-18T10:09:06;31.90;46.20
25871;DHT22;13689;48.590;7.752;2022-10-18T10:11:47;32.40;45.30
25871;DHT22;13689;48.590;7.752;2022-10-18T10:14:19;32.50;44.20
25871;DHT22;13689;48.590;7.752;2022-10-18T10:17:02;32.70;44.10
25871;DHT22;13689;48.590;7.752;2022-10-18T10:22:08;32.20;43.60
25871;DHT22;13689;48.590;7.752;2022-10-18T10:24:54;29.80;45.70
25871;DHT22;13689;48.590;7.752;2022-10-18T10:29:55;26.50;50.70
25871;DHT22;13689;48.590;7.752;2022-10-18T10:32:24;25.50;52.20
25871;DHT22;13689;48.590;7.752;2022-10-18T10:34:50;24.90;53.40
25871;DHT22;13689;48.590;7.752;2022-10-18T10:40:20;24.30;55.10
25871;DHT22;13689;48.590;7.752;2022-10-18T10:43:01;24.20;55.60
25871;DHT22;13689;48.590;7.752;2022-10-18T10:46:07;24.10;56.00
25871;DHT22;13689;48.590;7.752;2022-10-18T10:48:44;24.00;56.30
25871;DHT22;13689;48.590;7.752;2022-10-18T10:51:10;24.00;56.50
25871;DHT22;13689;48.590;7.752;2022-10-18T10:53:38;24.00;56.50
25871;DHT22;13689;48.590;7.752;2022-10-18T10:56:05;24.00;56.60
25871;DHT22;13689;48.590;7.752;2022-10-18T10:58:37;24.00;56.70
25871;DHT22;13689;48.590;7.752;2022-10-18T11:01:26;23.90;56.80
25871;DHT22;13689;48.590;7.752;2022-10-18T11:03:55;23.80;57.20
25871;DHT22;13689;48.590;7.752;2022-10-18T11:09:00;23.60;58.00
25871;DHT22;13689;48.590;7.752;2022-10-18T11:11:32;23.60;58.20
25871;DHT22;13689;48.590;7.752;2022-10-18T11:14:07;23.50;58.90
25871;DHT22;13689;48.590;7.752;2022-10-18T11:22:04;23.00;61.40
25871;DHT22;13689;48.590;7.752;2022-10-18T11:24:31;23.00;60.80
25871;DHT22;13689;48.590;7.752;2022-10-18T11:27:39;23.10;61.00
25871;DHT22;13689;48.590;7.752;2022-10-18T11:30:16;23.10;60.90
25871;DHT22;13689;48.590;7.752;2022-10-18T11:36:13;23.20;61.20
25871;DHT22;13689;48.590;7.752;2022-10-18T11:39:06;23.20;61.40
25871;DHT22;13689;48.590;7.752;2022-10-18T11:41:49;23.20;61.60
25871;DHT22;13689;48.590;7.752;2022-10-18T11:44:35;23.20;61.70
25871;DHT22;13689;48.590;7.752;2022-10-18T11:50:28;23.30;61.80
25871;DHT22;13689;48.590;7.752;2022-10-18T11:53:34;23.30;61.70
25871;DHT22;13689;48.590;7.752;2022-10-18T11:56:15;23.30;61.90
25871;DHT22;13689;48.590;7.752;2022-10-18T12:01:32;23.20;62.30
25871;DHT22;13689;48.590;7.752;2022-10-18T12:04:18;23.20;62.30
25871;DHT22;13689;48.590;7.752;2022-10-18T12:06:47;23.30;62.20
25871;DHT22;13689;48.590;7.752;2022-10-18T12:09:37;23.30;62.10
25871;DHT22;13689;48.590;7.752;2022-10-18T12:14:36;23.50;62.10
25871;DHT22;13689;48.590;7.752;2022-10-18T12:17:15;23.60;61.80
25871;DHT22;13689;48.590;7.752;2022-10-18T12:19:45;23.70;61.60
25871;DHT22;13689;48.590;7.752;2022-10-18T12:22:29;23.70;61.40
25871;DHT22;13689;48.590;7.752;2022-10-18T12:24:57;23.70;61.30
25871;DHT22;13689;48.590;7.752;2022-10-18T12:27:39;23.80;61.20
25871;DHT22;13689;48.590;7.752;2022-10-18T12:30:30;23.70;61.10
25871;DHT22;13689;48.590;7.752;2022-10-18T12:33:03;23.70;61.10
25871;DHT22;13689;48.590;7.752;2022-10-18T12:35:45;23.70;61.30
25871;DHT22;13689;48.590;7.752;2022-10-18T12:38:22;23.60;61.50
25871;DHT22;13689;48.590;7.752;2022-10-18T12:40:52;23.70;61.70
25871;DHT22;13689;48.590;7.752;2022-10-18T12:43:26;23.70;61.60
25871;DHT22;13689;48.590;7.752;2022-10-18T12:45:59;23.70;61.60
25871;DHT22;13689;48.590;7.752;2022-10-18T12:48:32;23.60;62.60
25871;DHT22;13689;48.590;7.752;2022-10-18T12:51:11;23.60;62.80
25871;DHT22;13689;48.590;7.752;2022-10-18T12:53:38;23.60;61.80
25871;DHT22;13689;48.590;7.752;2022-10-18T12:56:33;23.60;61.90
25871;DHT22;13689;48.590;7.752;2022-10-18T13:09:31;23.20;62.60
25871;DHT22;13689;48.590;7.752;2022-10-18T13:14:58;23.20;62.60
25871;DHT22;13689;48.590;7.752;2022-10-18T13:17:40;23.20;62.60
25871;DHT22;13689;48.590;7.752;2022-10-18T13:25:52;23.20;62.50
25871;DHT22;13689;48.590;7.752;2022-10-18T13:34:33;23.00;63.10
25871;DHT22;13689;48.590;7.752;2022-10-18T13:39:35;22.90;63.50
25871;DHT22;13689;48.590;7.752;2022-10-18T14:00:30;23.20;62.60
25871;DHT22;13689;48.590;7.752;2022-10-18T14:13:33;23.00;64.00
25871;DHT22;13689;48.590;7.752;2022-10-18T14:16:09;23.00;64.20
25871;DHT22;13689;48.590;7.752;2022-10-18T14:18:41;23.00;64.30
25871;DHT22;13689;48.590;7.752;2022-10-18T14:21:15;23.00;64.20
25871;DHT22;13689;48.590;7.752;2022-10-18T14:23:43;23.00;64.20
25871;DHT22;13689;48.590;7.752;2022-10-18T14:26:14;23.00;64.30
25871;DHT22;13689;48.590;7.752;2022-10-18T14:28:40;22.90;64.20
25871;DHT22;13689;48.590;7.752;2022-10-18T14:31:12;22.90;64.40
25871;DHT22;13689;48.590;7.752;2022-10-18T14:33:44;22.90;64.60
25871;DHT22;13689;48.590;7.752;2022-10-18T14:36:23;22.90;64.70
25871;DHT22;13689;48.590;7.752;2022-10-18T14:39:00;22.90;64.60
25871;DHT22;13689;48.590;7.752;2022-10-18T14:41:31;22.80;64.60
25871;DHT22;13689;48.590;7.752;2022-10-18T14:46:44;22.80;65.00
25871;DHT22;13689;48.590;7.752;2022-10-18T14:49:12;22.80;65.90
25871;DHT22;13689;48.590;7.752;2022-10-18T14:51:40;22.80;65.30
25871;DHT22;13689;48.590;7.752;2022-10-18T14:54:11;22.80;65.30
25871;DHT22;13689;48.590;7.752;2022-10-18T14:56:39;22.90;65.40
25871;DHT22;13689;48.590;7.752;2022-10-18T14:59:10;22.90;65.40
25871;DHT22;13689;48.590;7.752;2022-10-18T15:01:37;22.90;65.40
25871;DHT22;13689;48.590;7.752;2022-10-18T15:04:09;22.80;65.30
25871;DHT22;13689;48.590;7.752;2022-10-18T15:06:35;22.80;65.50
25871;DHT22;13689;48.590;7.752;2022-10-18T15:09:08;22.80;65.60
25871;DHT22;13689;48.590;7.752;2022-10-18T15:11:34;22.80;65.60
25871;DHT22;13689;48.590;7.752;2022-10-18T15:14:02;22.70;65.60
25871;DHT22;13689;48.590;7.752;2022-10-18T15:16:31;22.70;65.50
25871;DHT22;13689;48.590;7.752;2022-10-18T15:22:06;22.70;65.30
25871;DHT22;13689;48.590;7.752;2022-10-18T15:24:40;22.60;65.30
25871;DHT22;13689;48.590;7.752;2022-10-18T15:27:18;22.60;65.40
25871;DHT22;13689;48.590;7.752;2022-10-18T15:29:45;22.60;65.50
25871;DHT22;13689;48.590;7.752;2022-10-18T15:34:41;22.60;66.30
25871;DHT22;13689;48.590;7.752;2022-10-18T15:37:40;22.60;65.50
25871;DHT22;13689;48.590;7.752;2022-10-18T15:42:51;22.50;65.50
25871;DHT22;13689;48.590;7.752;2022-10-18T15:48:02;22.40;65.90
25871;DHT22;13689;48.590;7.752;2022-10-18T15:50:40;22.40;66.00
25871;DHT22;13689;48.590;7.752;2022-10-18T15:54:07;22.40;66.20
25871;DHT22;13689;48.590;7.752;2022-10-18T15:56:09;22.30;66.30
25871;DHT22;13689;48.590;7.752;2022-10-18T15:58:45;22.30;66.40
25871;DHT22;13689;48.590;7.752;2022-10-18T16:01:15;22.30;66.50
25871;DHT22;13689;48.590;7.752;2022-10-18T16:03:41;22.30;66.60
25871;DHT22;13689;48.590;7.752;2022-10-18T16:06:08;22.30;66.70
25871;DHT22;13689;48.590;7.752;2022-10-18T16:08:38;22.20;66.80
25871;DHT22;13689;48.590;7.752;2022-10-18T16:11:05;22.20;67.10
25871;DHT22;13689;48.590;7.752;2022-10-18T16:13:31;22.20;67.30
25871;DHT22;13689;48.590;7.752;2022-10-18T16:15:57;22.20;67.50
25871;DHT22;13689;48.590;7.752;2022-10-18T16:18:24;22.10;67.60
25871;DHT22;13689;48.590;7.752;2022-10-18T16:20:50;22.10;67.80
25871;DHT22;13689;48.590;7.752;2022-10-18T16:23:23;22.10;67.80
25871;DHT22;13689;48.590;7.752;2022-10-18T16:25:49;22.10;67.80
25871;DHT22;13689;48.590;7.752;2022-10-18T16:28:24;22.00;68.00
25871;DHT22;13689;48.590;7.752;2022-10-18T16:30:57;22.00;68.60
25871;DHT22;13689;48.590;7.752;2022-10-18T16:33:23;21.90;69.30
25871;DHT22;13689;48.590;7.752;2022-10-18T16:35:49;21.80;70.00
25871;DHT22;13689;48.590;7.752;2022-10-18T16:38:29;21.70;70.40
25871;DHT22;13689;48.590;7.752;2022-10-18T16:40:54;21.60;70.60
25871;DHT22;13689;48.590;7.752;2022-10-18T16:43:20;21.60;71.10
25871;DHT22;13689;48.590;7.752;2022-10-18T16:45:46;21.60;71.30
25871;DHT22;13689;48.590;7.752;2022-10-18T16:51:25;21.50;71.70
25871;DHT22;13689;48.590;7.752;2022-10-18T16:53:54;21.50;71.70
25871;DHT22;13689;48.590;7.752;2022-10-18T16:56:21;21.50;71.70
25871;DHT22;13689;48.590;7.752;2022-10-18T16:58:49;21.50;71.70
25871;DHT22;13689;48.590;7.752;2022-10-18T17:01:18;21.50;72.10
25871;DHT22;13689;48.590;7.752;2022-10-18T17:03:47;21.40;72.20
25871;DHT22;13689;48.590;7.752;2022-10-18T17:06:14;21.40;72.50
25871;DHT22;13689;48.590;7.752;2022-10-18T17:08:43;21.40;72.80
25871;DHT22;13689;48.590;7.752;2022-10-18T17:11:09;21.30;73.80
25871;DHT22;13689;48.590;7.752;2022-10-18T17:13:37;21.30;73.20
25871;DHT22;13689;48.590;7.752;2022-10-18T17:16:03;21.30;73.30
25871;DHT22;13689;48.590;7.752;2022-10-18T17:18:30;21.30;73.50
25871;DHT22;13689;48.590;7.752;2022-10-18T17:20:56;21.20;73.60
25871;DHT22;13689;48.590;7.752;2022-10-18T17:23:23;21.30;73.80
25871;DHT22;13689;48.590;7.752;2022-10-18T17:25:49;21.20;73.70
25871;DHT22;13689;48.590;7.752;2022-10-18T17:28:24;21.20;73.80
25871;DHT22;13689;48.590;7.752;2022-10-18T17:30:49;21.10;73.90
25871;DHT22;13689;48.590;7.752;2022-10-18T17:33:15;21.10;74.40
25871;DHT22;13689;48.590;7.752;2022-10-18T17:35:44;21.10;74.50
25871;DHT22;13689;48.590;7.752;2022-10-18T17:38:10;21.10;74.60
25871;DHT22;13689;48.590;7.752;2022-10-18T17:40:37;21.10;74.60
25871;DHT22;13689;48.590;7.752;2022-10-18T17:43:03;21.00;74.70
25871;DHT22;13689;48.590;7.752;2022-10-18T17:45:29;21.00;74.60
25871;DHT22;13689;48.590;7.752;2022-10-18T17:47:54;21.00;74.70
25871;DHT22;13689;48.590;7.752;2022-10-18T17:50:22;21.00;74.80
25871;DHT22;13689;48.590;7.752;2022-10-18T17:52:48;21.00;75.00
25871;DHT22;13689;48.590;7.752;2022-10-18T17:55:13;21.00;75.20
25871;DHT22;13689;48.590;7.752;2022-10-18T17:57:39;21.00;75.30
25871;DHT22;13689;48.590;7.752;2022-10-18T18:00:06;20.90;75.20
25871;DHT22;13689;48.590;7.752;2022-10-18T18:02:33;20.90;75.50
25871;DHT22;13689;48.590;7.752;2022-10-18T18:04:58;20.90;75.80
25871;DHT22;13689;48.590;7.752;2022-10-18T18:07:24;20.80;75.90